Time;durP1;ratioP1;P1;durP2;ratioP2;P2;SDS_P1;SDS_P2;PMS_P1;PMS_P2;Temp;Humidity;BMP_temperature;BMP_pressure;BME280_temperature;BME280_humidity;BME280_pressure;Samples;Min_cycle;Max_cycle;Signal;HPM_P1;HPM_P2
2023/06/29 16:13:40;;;;;;;9.10;5.28;;;;;;;;;;5106491;27;22288;-82
2023/06/29 16:16:06;;;;;;;7.40;5.13;;;;;;;;;;5090921;28;20042;-80
2023/06/29 16:18:32;;;;;;;11.20;5.35;;;;;;;;;;5085217;28;20077;-81
2023/06/29 16:21:05;;;;;;;9.32;5.20;;;;;;;;;;5079946;28;20068;-84
2023/06/29 16:23:31;;;;;;;11.57;5.55;;;;;;;;;;5064158;28;20097;-82
2023/06/29 16:25:57;;;;;;;12.18;5.82;;;;;;;;;;5087572;28;20020;-80
2023/06/29 16:28:23;;;;;;;11.95;6.93;;;;;;;;;;5086337;28;20036;-82
2023/06/29 16:30:49;;;;;;;14.15;8.38;;;;;;;;;;5087341;28;20025;-81
2023/06/29 16:33:15;;;;;;;13.85;7.13;;;;;;;;;;5074525;28;20035;-81
2023/06/29 16:35:41;;;;;;;11.40;5.80;;;;;;;;;;5077879;28;20123;-81
2023/06/29 16:38:07;;;;;;;12.20;6.13;;;;;;;;;;5095653;28;20608;-81
2023/06/29 16:40:33;;;;;;;12.10;7.97;;;;;;;;;;5076059;28;20024;-81
2023/06/29 16:42:59;;;;;;;13.18;8.75;;;;;;;;;;5080129;28;20047;-82
2023/06/29 16:45:28;;;;;;;12.82;9.05;;;;;;;;;;5092516;28;20035;-82
2023/06/29 16:47:55;;;;;;;18.30;10.63;;;;;;;;;;5085718;28;20020;-83
2023/06/29 16:50:21;;;;;;;19.42;10.93;;;;;;;;;;5098880;28;20043;-83
2023/06/29 16:52:48;;;;;;;18.52;10.90;;;;;;;;;;5118295;28;20021;-83
2023/06/29 16:55:14;;;;;;;17.90;10.68;;;;;;;;;;5084836;28;20021;-81
2023/06/29 16:57:40;;;;;;;15.95;10.40;;;;;;;;;;5091303;28;20016;-82
2023/06/29 17:00:08;;;;;;;16.00;10.93;;;27.70;82.90;;;;;;5102772;28;20156;-82
2023/06/29 17:02:35;;;;;;;19.67;10.20;;;;;;;;;;5062261;28;20029;-81
2023/06/29 17:05:01;;;;;;;14.50;10.02;;;;;;;;;;5071735;28;20071;-82
2023/06/29 17:07:27;;;;;;;15.82;10.95;;;;;;;;;;5090581;28;20024;-83
2023/06/29 17:09:55;;;;;;;18.67;10.30;;;;;;;;;;5068675;28;20036;-83
2023/06/29 17:12:21;;;;;;;17.58;10.48;;;;;;;;;;5086081;28;20035;-81
2023/06/29 17:14:47;;;;;;;13.80;10.50;;;;;;;;;;5058776;28;20107;-82
2023/06/29 17:17:13;;;;;;;14.60;10.30;;;;;;;;;;5038707;28;20118;-83
2023/06/29 17:19:45;;;;;;;15.30;10.02;;;;;;;;;;5053416;28;20044;-81
2023/06/29 17:23:05;;;;;;;15.35;10.23;;;;;;;;;;5047384;28;20133;-83
2023/06/29 17:25:07;;;;;;;13.52;10.05;;;;;;;;;;5023709;28;20135;-82
2023/06/29 17:27:39;;;;;;;16.02;9.98;;;;;;;;;;5051848;28;20044;-81
2023/06/29 17:30:05;;;;;;;17.10;10.00;;;;;;;;;;5065633;28;20021;-81
2023/06/29 17:32:31;;;;;;;17.17;10.05;;;;;;;;;;5045989;28;20154;-81
2023/06/29 17:34:58;;;;;;;20.55;12.25;;;;;;;;;;5065943;28;20039;-83
2023/06/29 17:37:31;;;;;;;22.02;14.50;;;;;;;;;;5049029;28;20059;-81
2023/06/29 17:40:01;;;;;;;34.22;15.85;;;;;;;;;;5051746;28;20482;-82
2023/06/29 17:42:27;;;;;;;21.35;11.13;;;;;;;;;;5067256;28;20482;-80
2023/06/29 17:44:53;;;;;;;26.75;15.30;;;;;;;;;;5056369;28;20094;-82
2023/06/29 17:47:19;;;;;;;25.20;13.25;;;;;;;;;;5057759;28;20086;-83
2023/06/29 17:49:45;;;;;;;19.40;11.70;;;27.10;85.50;;;;;;5045063;28;20028;-81
2023/06/29 17:52:11;;;;;;;48.88;24.65;;;;;;;;;;5028685;28;20044;-81
2023/06/29 17:54:38;;;;;;;22.23;13.00;;;;;;;;;;5069140;28;20040;-82
2023/06/29 17:57:04;;;;;;;21.27;13.30;;;;;;;;;;5043770;28;20112;-81
2023/06/29 17:59:30;;;;;;;24.90;14.30;;;;;;;;;;5062793;28;20032;-82
2023/06/29 18:01:56;;;;;;;18.15;12.95;;;;;;;;;;5056100;28;20433;-81
2023/06/29 18:04:22;;;;;;;19.33;11.75;;;;;;;;;;5065433;28;20033;-84
2023/06/29 18:06:59;;;;;;;19.58;12.57;;;;;;;;;;5065641;28;20032;-83
2023/06/29 18:09:25;;;;;;;17.45;11.18;;;;;;;;;;5069324;28;20040;-82
2023/06/29 18:12:00;;;;;;;20.38;11.90;;;;;;;;;;5068912;28;20082;-82
2023/06/29 18:14:28;;;;;;;16.92;12.20;;;;;;;;;;5080096;28;20045;-83
2023/06/29 18:16:54;;;;;;;19.40;12.73;;;;;;;;;;5072008;28;20036;-82
2023/06/29 18:19:21;;;;;;;19.83;13.05;;;;;;;;;;5064511;28;20024;-82
2023/06/29 18:21:47;;;;;;;21.73;13.85;;;;;;;;;;5080241;28;20036;-82
2023/06/29 18:24:13;;;;;;;19.90;13.73;;;26.40;87.40;;;;;;5067726;28;20028;-82
2023/06/29 18:26:42;;;;;;;19.35;13.07;;;;;;;;;;5052137;28;20043;-83
2023/06/29 18:29:11;;;;;;;19.13;13.38;;;;;;;;;;5074450;28;20036;-82
2023/06/29 18:31:40;;;;;;;23.10;13.70;;;;;;;;;;5068165;28;20599;-82
2023/06/29 18:34:10;;;;;;;18.63;12.57;;;;;;;;;;5059517;28;20036;-82
2023/06/29 18:36:36;;;;;;;19.98;13.38;;;;;;;;;;5075633;28;20021;-84
2023/06/29 18:39:02;;;;;;;19.88;13.45;;;;;;;;;;5077265;28;20054;-82
2023/06/29 18:41:28;;;;;;;17.85;13.00;;;;;;;;;;5053612;28;20028;-82
2023/06/29 18:43:55;;;;;;;23.52;13.93;;;;;;;;;;5062509;28;20024;-82
2023/06/29 18:46:22;;;;;;;16.30;11.93;;;26.10;88.60;;;;;;5070611;28;20820;-84
2023/06/29 18:48:48;;;;;;;18.92;13.35;;;;;;;;;;5065022;28;20029;-82
2023/06/29 18:51:14;;;;;;;19.77;13.13;;;;;;;;;;5072861;28;20037;-85
2023/06/29 18:53:43;;;;;;;16.85;11.88;;;;;;;;;;5076560;28;20020;-82
2023/06/29 18:56:09;;;;;;;17.88;12.15;;;;;;;;;;5072800;28;20021;-81
2023/06/29 18:58:35;;;;;;;20.65;13.23;;;;;;;;;;5058345;28;20020;-82
2023/06/29 19:01:01;;;;;;;18.13;12.73;;;;;;;;;;5058936;28;20035;-82
2023/06/29 19:03:27;;;;;;;25.42;17.00;;;;;;;;;;5061141;28;20028;-82
2023/06/29 19:05:53;;;;;;;17.33;12.05;;;;;;;;;;5050038;28;20032;-81
2023/06/29 19:08:19;;;;;;;19.83;12.88;;;25.70;89.80;;;;;;5052915;28;20474;-83
2023/06/29 19:10:45;;;;;;;18.70;12.80;;;;;;;;;;5061060;28;20043;-82
2023/06/29 19:13:14;;;;;;;17.42;13.10;;;25.60;88.80;;;;;;5065889;28;20402;-81
2023/06/29 19:15:41;;;;;;;17.43;12.40;;;;;;;;;;5057189;28;20522;-81
2023/06/29 19:18:19;;;;;;;22.60;14.43;;;;;;;;;;5037356;28;20052;-83
2023/06/29 19:20:45;;;;;;;19.30;13.75;;;25.50;90.00;;;;;;5056696;28;20028;-83
2023/06/29 19:23:12;;;;;;;21.10;13.85;;;;;;;;;;5033241;28;20041;-82
2023/06/29 19:25:38;;;;;;;20.80;13.88;;;25.40;90.30;;;;;;5068794;28;20028;-83
2023/06/29 19:28:05;;;;;;;22.58;14.80;;;;;;;;;;5055274;28;20028;-81
2023/06/29 19:30:31;;;;;;;21.17;13.65;;;;;;;;;;5067343;28;20107;-83
2023/06/29 19:32:58;;;;;;;18.58;12.60;;;25.30;90.40;;;;;;5071967;28;20175;-82
2023/06/29 19:35:24;;;;;;;22.60;13.63;;;;;;;;;;5074585;28;20021;-82
2023/06/29 19:37:51;;;;;;;19.42;13.30;;;;;;;;;;5077434;28;20392;-82
2023/06/29 19:40:17;;;;;;;18.40;12.65;;;;;;;;;;5052825;28;20078;-83
2023/06/29 19:42:43;;;;;;;17.73;12.85;;;;;;;;;;5068021;28;20470;-84
2023/06/29 19:45:10;;;;;;;21.30;14.25;;;25.10;90.50;;;;;;5050193;28;20055;-83
2023/06/29 19:47:36;;;;;;;18.13;12.82;;;;;;;;;;5055066;28;20029;-82
2023/06/29 19:50:05;;;;;;;17.90;13.07;;;;;;;;;;5068549;28;20035;-82
2023/06/29 19:52:31;;;;;;;18.25;13.20;;;;;;;;;;5073173;28;20029;-82
2023/06/29 19:54:57;;;;;;;20.17;13.07;;;;;;;;;;5061846;28;20036;-83
2023/06/29 19:57:23;;;;;;;34.88;24.55;;;;;;;;;;5060848;28;20040;-82
2023/06/29 19:59:49;;;;;;;24.13;14.48;;;;;;;;;;5071467;28;20020;-84
2023/06/29 20:02:15;;;;;;;15.82;11.93;;;;;;;;;;5068878;28;20094;-83
2023/06/29 20:04:41;;;;;;;18.10;13.05;;;;;;;;;;5073868;28;20028;-81
2023/06/29 20:07:07;;;;;;;20.15;12.23;;;;;;;;;;5055277;28;20072;-81
2023/06/29 20:09:33;;;;;;;21.25;11.82;;;;;;;;;;5065629;28;22424;-82
2023/06/29 20:12:00;;;;;;;17.00;12.40;;;;;;;;;;5053373;28;20040;-82
2023/06/29 20:14:26;;;;;;;19.33;11.93;;;;;;;;;;5074224;28;20024;-82
2023/06/29 20:16:54;;;;;;;19.30;13.18;;;;;;;;;;5045566;28;20088;-80
2023/06/29 20:19:24;;;;;;;16.00;11.63;;;;;;;;;;5058839;28;20025;-84
2023/06/29 20:21:50;;;;;;;20.20;12.77;;;;;;;;;;5077747;28;20031;-81
2023/06/29 20:24:18;;;;;;;21.83;12.43;;;24.20;95.00;;;;;;5076062;28;20040;-83
2023/06/29 20:26:47;;;;;;;19.13;13.13;;;;;;;;;;5058704;28;20025;-83
2023/06/29 20:29:25;;;;;;;20.92;12.48;;;;;;;;;;5037116;28;20044;-83
2023/06/29 20:32:00;;;;;;;18.90;13.00;;;;;;;;;;5067512;28;20032;-84
2023/06/29 20:34:26;;;;;;;20.42;12.27;;;;;;;;;;5077472;28;20010;-83
2023/06/29 20:36:52;;;;;;;18.02;12.95;;;;;;;;;;5084298;28;20039;-84
2023/06/29 20:39:22;;;;;;;17.83;11.88;;;;;;;;;;5087538;28;20013;-83
2023/06/29 20:41:53;;;;;;;19.83;14.38;;;;;;;;;;5073378;28;20027;-83
2023/06/29 20:44:29;;;;;;;19.30;12.43;;;;;;;;;;5067599;28;20039;-84
2023/06/29 20:47:01;;;;;;;20.10;12.55;;;23.80;96.00;;;;;;5057650;28;20119;-81
2023/06/29 20:49:33;;;;;;;19.50;12.98;;;23.80;96.10;;;;;;5066275;28;20043;-85
2023/06/29 20:52:05;;;;;;;19.90;12.98;;;23.80;96.20;;;;;;5092099;28;20025;-84
2023/06/29 20:54:34;;;;;;;19.70;13.20;;;;;;;;;;5093767;28;20020;-85
2023/06/29 20:57:03;;;;;;;21.75;13.32;;;23.70;96.50;;;;;;5082446;28;20043;-83
2023/06/29 20:59:32;;;;;;;20.88;13.73;;;;;;;;;;5084131;28;20044;-83
2023/06/29 21:02:01;;;;;;;19.63;13.07;;;;;;;;;;5064328;28;20028;-81
2023/06/29 21:07:08;;;;;;;20.25;13.88;;;;;;;;;;5033135;28;20600;-79
2023/06/29 21:09:34;;;;;;;21.40;13.82;;;;;;;;;;5023432;28;20040;-80
2023/06/29 21:12:00;;;;;;;19.42;13.60;;;;;;;;;;5036663;28;20481;-79
2023/06/29 21:14:26;;;;;;;20.67;13.02;;;;;;;;;;5003531;28;20034;-78
2023/06/29 21:16:53;;;;;;;21.88;14.27;;;23.70;97.10;;;;;;5036832;28;20022;-78
2023/06/29 21:19:19;;;;;;;20.50;13.35;;;23.60;97.10;;;;;;5030463;28;20049;-78
2023/06/29 21:21:45;;;;;;;17.95;12.75;;;23.70;97.30;;;;;;5044598;28;20033;-78
2023/06/29 21:24:13;;;;;;;19.63;12.57;;;23.70;97.30;;;;;;5047565;28;20060;-79
2023/06/29 21:26:39;;;;;;;22.90;12.85;;;;;;;;;;5017136;28;20076;-77
2023/06/29 21:29:06;;;;;;;23.27;13.50;;;23.70;97.10;;;;;;5032208;28;20045;-80
2023/06/29 21:31:33;;;;;;;23.20;13.57;;;23.70;97.30;;;;;;5047545;28;20029;-79
2023/06/29 21:34:02;;;;;;;20.95;12.18;;;23.60;97.60;;;;;;5047577;28;20026;-80
2023/06/29 21:36:31;;;;;;;21.48;12.18;;;23.60;97.50;;;;;;5049567;28;20067;-77
2023/06/29 21:38:57;;;;;;;21.30;13.10;;;23.60;97.60;;;;;;5030888;28;20032;-79
2023/06/29 21:41:30;;;;;;;19.65;12.32;;;23.60;97.80;;;;;;5036120;28;20120;-79
2023/06/29 21:43:59;;;;;;;19.13;11.68;;;;;;;;;;5037324;28;20393;-79
2023/06/29 21:46:43;;;;;;;15.20;10.90;;;23.50;97.70;;;;;;5037663;28;20117;-81
2023/06/29 21:49:08;;;;;;;17.73;11.63;;;23.50;98.20;;;;;;5033700;28;20025;-79
2023/06/29 21:51:34;;;;;;;19.27;11.43;;;23.40;98.90;;;;;;5028621;28;20025;-79
2023/06/29 21:54:00;;;;;;;18.65;11.68;;;23.50;98.50;;;;;;5027650;28;20025;-78
2023/06/29 21:56:34;;;;;;;20.63;11.23;;;23.50;98.40;;;;;;5039146;28;20031;-78
2023/06/29 21:59:09;;;;;;;17.42;11.00;;;;;;;;;;5036883;28;20037;-79
2023/06/29 22:02:11;;;;;;;;;;;;;;;;;;;;;
2023/06/29 22:04:47;;;;;;;15.98;10.80;;;23.40;98.70;;;;;;5031911;28;20077;-80
2023/06/29 22:07:45;;;;;;;19.77;11.15;;;23.70;99.90;;;;;;5016899;28;20033;-79
2023/06/29 22:10:29;;;;;;;18.30;12.23;;;23.40;98.80;;;;;;5005286;28;20135;-80
2023/06/29 22:13:36;;;;;;;18.27;11.75;;;23.40;98.90;;;;;;5027123;28;20043;-80
2023/06/29 22:16:28;;;;;;;18.83;11.95;;;23.40;99.50;;;;;;5030684;28;20017;-80
2023/06/29 22:18:55;;;;;;;18.27;12.00;;;;;;;;;;5025373;28;20032;-79
2023/06/29 22:21:23;;;;;;;18.73;12.73;;;;;;;;;;5031601;28;20194;-80
2023/06/29 22:23:53;;;;;;;16.63;11.88;;;23.40;99.30;;;;;;5025233;28;20030;-79
2023/06/29 22:26:20;;;;;;;17.27;11.32;;;23.30;99.60;;;;;;5028316;28;20025;-79
2023/06/29 22:28:45;;;;;;;17.80;11.63;;;23.90;99.80;;;;;;5014626;28;20057;-79
2023/06/29 22:31:13;;;;;;;15.55;11.23;;;23.40;99.60;;;;;;5016036;28;20032;-79
2023/06/29 22:33:40;;;;;;;16.45;11.38;;;23.40;99.70;;;;;;5017749;28;20049;-79
2023/06/29 22:36:05;;;;;;;20.13;11.98;;;23.30;99.70;;;;;;5048840;28;20040;-79
2023/06/29 22:38:31;;;;;;;16.50;11.48;;;23.30;99.80;;;;;;5047702;28;20017;-80
2023/06/29 22:40:57;;;;;;;16.63;11.48;;;23.20;99.90;;;;;;5034803;28;20061;-78
2023/06/29 22:43:23;;;;;;;18.13;12.20;;;23.20;99.90;;;;;;5035722;28;20056;-79
2023/06/29 22:45:50;;;;;;;22.73;11.82;;;23.20;99.90;;;;;;5031951;28;20116;-79
2023/06/29 22:48:16;;;;;;;18.70;11.63;;;23.20;99.90;;;;;;5020461;28;20060;-79
2023/06/29 22:50:41;;;;;;;18.55;12.00;;;23.20;99.90;;;;;;5017199;28;20117;-79
2023/06/29 22:53:07;;;;;;;16.67;11.80;;;23.20;99.90;;;;;;5026595;28;20060;-76
2023/06/29 22:55:33;;;;;;;21.08;12.05;;;23.10;99.90;;;;;;5027155;28;20031;-79
2023/06/29 22:57:58;;;;;;;16.75;11.52;;;23.00;99.90;;;;;;5030287;28;20069;-78
2023/06/29 23:00:24;;;;;;;19.88;12.30;;;23.00;99.90;;;;;;5030474;28;20393;-78
2023/06/29 23:02:50;;;;;;;17.50;11.70;;;23.00;99.90;;;;;;5016278;28;20060;-80
2023/06/29 23:05:16;;;;;;;16.98;11.98;;;23.00;99.90;;;;;;5030319;28;20064;-80
2023/06/29 23:07:44;;;;;;;16.58;11.93;;;23.00;99.90;;;;;;5042722;28;20037;-79
2023/06/29 23:10:12;;;;;;;18.88;12.10;;;23.00;99.90;;;;;;5026975;28;20033;-80
2023/06/29 23:12:38;;;;;;;18.13;12.23;;;22.90;99.90;;;;;;5029404;28;20108;-79
2023/06/29 23:15:04;;;;;;;17.58;11.65;;;22.90;99.90;;;;;;5012465;28;20089;-79
2023/06/29 23:17:31;;;;;;;18.45;11.82;;;22.90;99.90;;;;;;5016931;28;20033;-79
2023/06/29 23:19:57;;;;;;;16.85;11.98;;;24.20;99.90;;;;;;5028698;28;20064;-77
2023/06/29 23:22:23;;;;;;;17.92;12.40;;;23.00;99.90;;;;;;5026594;28;20030;-79
2023/06/29 23:24:52;;;;;;;16.85;11.63;;;22.80;99.90;;;;;;5022817;28;20182;-79
2023/06/29 23:27:18;;;;;;;20.63;12.93;;;22.90;99.90;;;;;;5026605;28;20036;-79
2023/06/29 23:29:44;;;;;;;17.42;11.82;;;22.80;99.90;;;;;;5013735;28;20291;-79
2023/06/29 23:32:10;;;;;;;19.48;11.75;;;22.70;99.90;;;;;;5006105;28;20029;-80
2023/06/29 23:34:39;;;;;;;17.60;11.88;;;22.60;99.90;;;;;;5025529;28;20021;-79
2023/06/29 23:37:08;;;;;;;18.02;12.63;;;22.70;99.90;;;;;;5012708;28;20378;-80
2023/06/29 23:39:42;;;;;;;17.60;12.07;;;22.60;99.90;;;;;;5024773;28;20108;-79
2023/06/29 23:42:11;;;;;;;21.08;12.77;;;;;;;;;;5005931;28;20029;-81
2023/06/29 23:44:41;;;;;;;18.45;11.98;;;22.50;99.90;;;;;;5015689;28;20121;-79
2023/06/29 23:47:09;;;;;;;21.02;12.63;;;22.50;99.90;;;;;;5010159;28;20044;-79
2023/06/29 23:49:36;;;;;;;18.98;12.10;;;;;;;;;;5019769;28;20025;-80
2023/06/29 23:52:03;;;;;;;17.98;12.07;;;;;;;;;;5047032;28;20086;-81
2023/06/29 23:54:29;;;;;;;19.98;13.10;;;;;;;;;;5047787;28;20018;-80
2023/06/29 23:56:55;;;;;;;20.55;14.10;;;22.40;99.90;;;;;;5042260;28;20050;-79
2023/06/29 23:59:20;;;;;;;23.35;13.68;;;22.40;99.90;;;;;;5024742;28;20049;-78
